Private Wetterstation Sandau
Wetterdaten: Montag, 31.12.2012
Datum Zeit Temp. A. Feuchte A. Luftdruck Regen Wind Richtung Richtung Taupunkt Windchill
31.12.2012 00:01 5,6 C 83 % 1014,5 hPa 0,0 l/m 11,9 km/h (2 Bft) W 270 2,9 C 3,0 C
31.12.2012 00:06 5,6 C 83 % 1014,6 hPa 0,0 l/m 20,9 km/h (4 Bft) W-SW 247 2,9 C 1,7 C
31.12.2012 00:11 5,5 C 84 % 1014,6 hPa 0,0 l/m 9,4 km/h (2 Bft) W-SW 247 3,0 C 3,4 C
31.12.2012 00:16 5,5 C 84 % 1014,5 hPa 0,0 l/m 9,7 km/h (2 Bft) W-SW 247 3,0 C 3,3 C
31.12.2012 00:21 5,4 C 84 % 1014,6 hPa 0,0 l/m 5,8 km/h (2 Bft) SW 225 2,9 C 4,2 C
31.12.2012 00:26 5,5 C 84 % 1014,6 hPa 0,0 l/m 18,0 km/h (3 Bft) W-SW 247 3,0 C 1,9 C
31.12.2012 00:31 5,5 C 84 % 1014,6 hPa 0,0 l/m 12,2 km/h (2 Bft) S 180 3,0 C 2,8 C
31.12.2012 00:36 5,5 C 84 % 1014,6 hPa 0,0 l/m 16,2 km/h (3 Bft) W-SW 247 3,0 C 2,2 C
31.12.2012 00:41 5,6 C 84 % 1014,6 hPa 0,0 l/m 7,2 km/h (2 Bft) SW 225 3,1 C 4,1 C
31.12.2012 00:46 5,5 C 84 % 1014,6 hPa 0,0 l/m 11,9 km/h (2 Bft) W 270 3,0 C 2,9 C
31.12.2012 00:51 5,5 C 85 % 1014,5 hPa 0,0 l/m 8,6 km/h (2 Bft) SW 225 3,2 C 3,6 C
31.12.2012 00:56 5,5 C 85 % 1014,5 hPa 0,0 l/m 21,6 km/h (4 Bft) SW 225 3,2 C 1,5 C
31.12.2012 01:01 5,5 C 85 % 1014,6 hPa 0,0 l/m 9,7 km/h (2 Bft) S 180 3,2 C 3,3 C
31.12.2012 01:06 5,5 C 85 % 1014,6 hPa 0,0 l/m 15,5 km/h (3 Bft) W-SW 247 3,2 C 2,3 C
31.12.2012 01:11 5,5 C 85 % 1014,5 hPa 0,0 l/m 13,3 km/h (3 Bft) SW 225 3,2 C 2,6 C
31.12.2012 01:16 5,5 C 85 % 1014,5 hPa 0,0 l/m 13,3 km/h (3 Bft) S 180 3,2 C 2,6 C
31.12.2012 01:21 5,5 C 85 % 1014,7 hPa 0,0 l/m 13,7 km/h (3 Bft) S-SW 202 3,2 C 2,6 C
31.12.2012 01:26 5,6 C 85 % 1014,6 hPa 0,0 l/m 6,5 km/h (2 Bft) S 180 3,3 C 4,3 C
31.12.2012 01:31 5,7 C 85 % 1014,4 hPa 0,0 l/m 11,9 km/h (2 Bft) W 270 3,4 C 3,1 C
31.12.2012 01:36 5,7 C 85 % 1014,5 hPa 0,0 l/m 14,4 km/h (3 Bft) W-SW 247 3,4 C 2,7 C
31.12.2012 01:41 5,6 C 85 % 1014,5 hPa 0,0 l/m 9,0 km/h (2 Bft) W-SW 247 3,3 C 3,6 C
31.12.2012 01:46 5,6 C 85 % 1014,6 hPa 0,0 l/m 16,9 km/h (3 Bft) W-SW 247 3,3 C 2,2 C
31.12.2012 01:51 5,6 C 85 % 1014,6 hPa 0,0 l/m 11,9 km/h (2 Bft) S-SW 202 3,3 C 3,0 C
31.12.2012 01:56 5,8 C 85 % 1014,6 hPa 0,0 l/m 10,8 km/h (2 Bft) S-SW 202 3,5 C 3,5 C
31.12.2012 02:01 5,8 C 85 % 1014,5 hPa 0,0 l/m 22,3 km/h (4 Bft) W-SW 247 3,5 C 1,8 C
31.12.2012 02:06 5,8 C 85 % 1014,6 hPa 0,0 l/m 14,8 km/h (3 Bft) SW 225 3,5 C 2,8 C
31.12.2012 02:11 5,8 C 85 % 1014,5 hPa 0,0 l/m 19,4 km/h (3 Bft) W-SW 247 3,5 C 2,1 C
31.12.2012 02:16 5,9 C 85 % 1014,4 hPa 0,0 l/m 6,5 km/h (2 Bft) S-SO 157 3,6 C 4,6 C
31.12.2012 02:21 5,9 C 85 % 1014,5 hPa 0,0 l/m 16,2 km/h (3 Bft) W-NW 292 3,6 C 2,7 C
31.12.2012 02:26 5,9 C 85 % 1014,5 hPa 0,0 l/m 12,6 km/h (3 Bft) S-SW 202 3,6 C 3,2 C
31.12.2012 02:31 6,1 C 85 % 1014,7 hPa 0,0 l/m 21,2 km/h (4 Bft) SW 225 3,8 C 2,3 C
31.12.2012 02:36 6,1 C 85 % 1014,7 hPa 0,0 l/m 23,4 km/h (4 Bft) S-SW 202 3,8 C 2,1 C
31.12.2012 02:41 6,2 C 85 % 1014,7 hPa 0,0 l/m 20,9 km/h (4 Bft) W-SW 247 3,9 C 2,5 C
31.12.2012 02:46 6,2 C 85 % 1014,8 hPa 0,0 l/m 9,4 km/h (2 Bft) S 180 3,9 C 4,2 C
31.12.2012 02:51 6,2 C 85 % 1014,8 hPa 0,0 l/m 18,7 km/h (3 Bft) W-SW 247 3,9 C 2,7 C
31.12.2012 02:56 6,2 C 84 % 1014,8 hPa 0,0 l/m 6,8 km/h (2 Bft) SW 225 3,7 C 4,9 C
31.12.2012 03:01 6,2 C 84 % 1014,7 hPa 0,0 l/m 14,8 km/h (3 Bft) S-SW 202 3,7 C 3,3 C
31.12.2012 03:06 6,1 C 84 % 1014,6 hPa 0,0 l/m 11,2 km/h (2 Bft) SW 225 3,6 C 3,7 C
31.12.2012 03:11 6,2 C 85 % 1014,5 hPa 0,0 l/m 9,0 km/h (2 Bft) SW 225 3,9 C 4,3 C
31.12.2012 03:16 6,2 C 85 % 1014,5 hPa 0,0 l/m 9,7 km/h (2 Bft) W-SW 247 3,9 C 4,2 C
31.12.2012 03:21 6,2 C 85 % 1014,5 hPa 0,0 l/m 14,8 km/h (3 Bft) S-SW 202 3,9 C 3,3 C
31.12.2012 03:26 6,2 C 85 % 1014,4 hPa 0,0 l/m 17,3 km/h (3 Bft) SW 225 3,9 C 2,9 C
31.12.2012 03:31 6,3 C 85 % 1014,3 hPa 0,0 l/m 13,7 km/h (3 Bft) SW 225 4,0 C 3,5 C
31.12.2012 03:36 6,3 C 85 % 1014,3 hPa 0,0 l/m 7,6 km/h (2 Bft) SW 225 4,0 C 4,8 C
31.12.2012 03:41 6,3 C 85 % 1014,3 hPa 0,0 l/m 19,8 km/h (3 Bft) W-SW 247 4,0 C 2,7 C
31.12.2012 03:46 6,3 C 85 % 1014,3 hPa 0,0 l/m 19,1 km/h (3 Bft) S-SW 202 4,0 C 2,8 C
31.12.2012 03:51 6,4 C 85 % 1014,5 hPa 0,0 l/m 16,9 km/h (3 Bft) S-SW 202 4,1 C 3,2 C
31.12.2012 03:56 6,4 C 85 % 1014,3 hPa 0,0 l/m 19,8 km/h (3 Bft) SW 225 4,1 C 2,9 C
31.12.2012 04:01 6,4 C 85 % 1014,2 hPa 0,0 l/m 18,0 km/h (3 Bft) W 270 4,1 C 3,1 C
31.12.2012 04:06 6,5 C 85 % 1014,1 hPa 0,0 l/m 23,0 km/h (4 Bft) SW 225 4,2 C 2,6 C
31.12.2012 04:11 6,6 C 85 % 1014,0 hPa 0,0 l/m 19,4 km/h (3 Bft) W-SW 247 4,3 C 3,2 C
31.12.2012 04:16 6,7 C 85 % 1014,0 hPa 0,0 l/m 21,6 km/h (4 Bft) S 180 4,4 C 3,0 C
31.12.2012 04:21 6,8 C 84 % 1013,9 hPa 0,0 l/m 24,1 km/h (4 Bft) W-SW 247 4,3 C 2,9 C
31.12.2012 04:26 6,8 C 84 % 1014,0 hPa 0,0 l/m 16,6 km/h (3 Bft) W-SW 247 4,3 C 3,7 C
31.12.2012 04:31 6,9 C 84 % 1013,9 hPa 0,0 l/m 12,2 km/h (2 Bft) S-SW 202 4,4 C 4,5 C
31.12.2012 04:36 6,9 C 84 % 1013,8 hPa 0,0 l/m 23,4 km/h (4 Bft) SW 225 4,4 C 3,1 C
31.12.2012 04:41 6,9 C 84 % 1013,8 hPa 0,0 l/m 10,4 km/h (2 Bft) S-SW 202 4,4 C 4,8 C
31.12.2012 04:46 6,9 C 84 % 1013,8 hPa 0,0 l/m 18,7 km/h (3 Bft) W-SW 247 4,4 C 3,6 C
31.12.2012 04:51 6,9 C 84 % 1013,7 hPa 0,0 l/m 15,1 km/h (3 Bft) S-SW 202 4,4 C 4,1 C
31.12.2012 04:56 6,9 C 84 % 1013,8 hPa 0,0 l/m 14,8 km/h (3 Bft) SW 225 4,4 C 4,1 C
31.12.2012 05:01 6,9 C 84 % 1013,8 hPa 0,0 l/m 12,6 km/h (3 Bft) W-SW 247 4,4 C 4,5 C
31.12.2012 05:06 6,9 C 84 % 1013,7 hPa 0,0 l/m 20,9 km/h (4 Bft) SW 225 4,4 C 3,4 C
31.12.2012 05:11 6,9 C 84 % 1013,6 hPa 0,0 l/m 16,6 km/h (3 Bft) S-SW 202 4,4 C 3,9 C
31.12.2012 05:16 7,0 C 84 % 1013,4 hPa 0,0 l/m 9,7 km/h (2 Bft) S-SW 202 4,5 C 5,1 C
31.12.2012 05:21 7,1 C 83 % 1013,5 hPa 0,0 l/m 12,6 km/h (3 Bft) W 270 4,4 C 4,7 C
31.12.2012 05:26 7,2 C 83 % 1013,4 hPa 0,0 l/m 11,2 km/h (2 Bft) W-SW 247 4,5 C 5,1 C
31.12.2012 05:31 7,2 C 83 % 1013,3 hPa 0,0 l/m 14,0 km/h (3 Bft) W-SW 247 4,5 C 4,6 C
31.12.2012 05:36 7,3 C 82 % 1013,2 hPa 0,0 l/m 13,7 km/h (3 Bft) S 180 4,4 C 4,8 C
31.12.2012 05:41 7,3 C 82 % 1013,2 hPa 0,0 l/m 11,9 km/h (2 Bft) SW 225 4,4 C 5,1 C
31.12.2012 05:46 7,4 C 82 % 1013,2 hPa 0,0 l/m 17,6 km/h (3 Bft) W-SW 247 4,5 C 4,4 C
31.12.2012 05:51 7,4 C 82 % 1013,1 hPa 0,0 l/m 8,6 km/h (2 Bft) W-SW 247 4,5 C 5,8 C
31.12.2012 05:56 7,3 C 83 % 1013,2 hPa 0,0 l/m 18,7 km/h (3 Bft) S-SW 202 4,6 C 4,1 C
31.12.2012 06:01 7,3 C 83 % 1013,3 hPa 0,0 l/m 14,8 km/h (3 Bft) W 270 4,6 C 4,6 C
31.12.2012 06:06 7,3 C 83 % 1013,2 hPa 0,0 l/m 22,3 km/h (4 Bft) SW 225 4,6 C 3,7 C
31.12.2012 06:11 7,4 C 82 % 1013,2 hPa 0,0 l/m 13,0 km/h (3 Bft) S-SW 202 4,5 C 5,0 C
31.12.2012 06:16 7,4 C 82 % 1013,1 hPa 0,0 l/m 14,4 km/h (3 Bft) W-SW 247 4,5 C 4,8 C
31.12.2012 06:21 7,5 C 82 % 1013,1 hPa 0,0 l/m 17,6 km/h (3 Bft) SW 225 4,6 C 4,5 C
31.12.2012 06:26 7,6 C 82 % 1013,0 hPa 0,0 l/m 16,2 km/h (3 Bft) S 180 4,7 C 4,8 C
31.12.2012 06:31 7,6 C 81 % 1012,9 hPa 0,0 l/m 22,7 km/h (4 Bft) W-SW 247 4,6 C 4,1 C
31.12.2012 06:36 7,7 C 81 % 1012,9 hPa 0,0 l/m 15,5 km/h (3 Bft) S 180 4,7 C 5,0 C
31.12.2012 06:41 7,8 C 81 % 1012,9 hPa 0,0 l/m 26,3 km/h (4 Bft) W-SW 247 4,7 C 4,0 C
31.12.2012 06:46 7,8 C 81 % 1012,8 hPa 0,0 l/m 26,3 km/h (4 Bft) W-SW 247 4,7 C 4,0 C
31.12.2012 06:51 7,8 C 80 % 1012,9 hPa 0,0 l/m 24,8 km/h (4 Bft) S-SW 202 4,6 C 4,1 C
31.12.2012 06:56 7,9 C 80 % 1012,8 hPa 0,0 l/m 25,2 km/h (4 Bft) S-SW 202 4,7 C 4,2 C
31.12.2012 07:01 7,9 C 80 % 1012,7 hPa 0,0 l/m 16,6 km/h (3 Bft) S 180 4,7 C 5,1 C
31.12.2012 07:06 7,9 C 80 % 1012,9 hPa 0,0 l/m 16,9 km/h (3 Bft) S-SW 202 4,7 C 5,1 C
31.12.2012 07:11 7,9 C 80 % 1012,6 hPa 0,0 l/m 28,1 km/h (4 Bft) W-SW 247 4,7 C 4,0 C
31.12.2012 07:16 7,9 C 80 % 1012,8 hPa 0,0 l/m 23,4 km/h (4 Bft) S 180 4,7 C 4,4 C
31.12.2012 07:21 8,0 C 79 % 1012,7 hPa 0,0 l/m 23,0 km/h (4 Bft) W-SW 247 4,6 C 4,6 C
31.12.2012 07:26 8,1 C 79 % 1012,8 hPa 0,0 l/m 13,0 km/h (3 Bft) S-SW 202 4,7 C 5,9 C
31.12.2012 07:31 8,0 C 79 % 1012,6 hPa 0,0 l/m 16,6 km/h (3 Bft) W-SW 247 4,6 C 5,2 C
31.12.2012 07:36 8,0 C 79 % 1012,7 hPa 0,0 l/m 15,5 km/h (3 Bft) W-SW 247 4,6 C 5,4 C
31.12.2012 07:41 8,0 C 79 % 1012,7 hPa 0,0 l/m 19,1 km/h (3 Bft) SW 225 4,6 C 4,9 C
31.12.2012 07:46 7,9 C 79 % 1012,8 hPa 0,0 l/m 26,6 km/h (4 Bft) W-SW 247 4,5 C 4,1 C
31.12.2012 07:51 8,0 C 79 % 1012,7 hPa 0,0 l/m 14,4 km/h (3 Bft) SW 225 4,6 C 5,5 C
31.12.2012 07:56 8,0 C 79 % 1012,7 hPa 0,0 l/m 25,6 km/h (4 Bft) S-SW 202 4,6 C 4,3 C
31.12.2012 08:01 8,1 C 79 % 1012,8 hPa 0,0 l/m 9,4 km/h (2 Bft) S 180 4,7 C 6,5 C
31.12.2012 08:06 8,1 C 79 % 1012,7 hPa 0,0 l/m 11,2 km/h (2 Bft) SW 225 4,7 C 6,1 C
31.12.2012 08:11 8,1 C 79 % 1012,8 hPa 0,0 l/m 8,3 km/h (2 Bft) S-SW 202 4,7 C 6,7 C
31.12.2012 08:16 8,1 C 79 % 1012,7 hPa 0,0 l/m 13,7 km/h (3 Bft) W-SW 247 4,7 C 5,8 C
31.12.2012 08:21 8,1 C 79 % 1012,8 hPa 0,0 l/m 23,4 km/h (4 Bft) W 270 4,7 C 4,6 C
31.12.2012 08:26 8,1 C 79 % 1012,9 hPa 0,0 l/m 10,4 km/h (2 Bft) SW 225 4,7 C 6,3 C
31.12.2012 08:31 8,1 C 78 % 1012,8 hPa 0,0 l/m 28,1 km/h (4 Bft) W-SW 247 4,5 C 4,2 C
31.12.2012 08:36 8,1 C 78 % 1013,0 hPa 0,0 l/m 13,7 km/h (3 Bft) SW 225 4,5 C 5,8 C
31.12.2012 08:41 8,2 C 78 % 1012,8 hPa 0,0 l/m 10,4 km/h (2 Bft) SW 225 4,6 C 6,4 C
31.12.2012 08:46 8,2 C 78 % 1012,8 hPa 0,0 l/m 11,9 km/h (2 Bft) S-SW 202 4,6 C 6,2 C
31.12.2012 08:51 8,2 C 78 % 1012,8 hPa 0,0 l/m 9,4 km/h (2 Bft) S-SW 202 4,6 C 6,6 C
31.12.2012 08:56 8,2 C 78 % 1012,9 hPa 0,0 l/m 13,7 km/h (3 Bft) SW 225 4,6 C 5,9 C
31.12.2012 09:01 8,3 C 78 % 1013,0 hPa 0,0 l/m 14,4 km/h (3 Bft) W-SW 247 4,7 C 5,9 C
31.12.2012 09:06 8,3 C 77 % 1012,9 hPa 0,0 l/m 19,8 km/h (3 Bft) W-SW 247 4,5 C 5,3 C
31.12.2012 09:11 8,3 C 77 % 1012,8 hPa 0,0 l/m 7,6 km/h (2 Bft) SW 225 4,5 C 7,1 C
31.12.2012 09:16 8,4 C 77 % 1012,9 hPa 0,0 l/m 17,6 km/h (3 Bft) S-SW 202 4,6 C 5,6 C
31.12.2012 09:21 8,4 C 77 % 1013,1 hPa 0,0 l/m 10,1 km/h (2 Bft) S-SW 202 4,6 C 6,7 C
31.12.2012 09:26 8,4 C 77 % 1013,0 hPa 0,0 l/m 11,5 km/h (2 Bft) SW 225 4,6 C 6,5 C
31.12.2012 09:31 8,4 C 77 % 1012,9 hPa 0,0 l/m 17,3 km/h (3 Bft) SW 225 4,6 C 5,7 C
31.12.2012 09:36 8,4 C 77 % 1013,1 hPa 0,0 l/m 11,2 km/h (2 Bft) S-SW 202 4,6 C 6,5 C
31.12.2012 09:41 8,4 C 77 % 1013,0 hPa 0,0 l/m 12,2 km/h (2 Bft) W-SW 247 4,6 C 6,3 C
31.12.2012 09:46 8,5 C 77 % 1013,0 hPa 0,0 l/m 11,9 km/h (2 Bft) SW 225 4,7 C 6,5 C
31.12.2012 09:51 8,5 C 77 % 1013,0 hPa 0,0 l/m 23,4 km/h (4 Bft) SW 225 4,7 C 5,2 C
31.12.2012 09:56 8,5 C 76 % 1013,2 hPa 0,0 l/m 23,0 km/h (4 Bft) SW 225 4,5 C 5,2 C
31.12.2012 10:01 8,5 C 76 % 1013,2 hPa 0,0 l/m 20,5 km/h (4 Bft) S-SW 202 4,5 C 5,4 C
31.12.2012 10:06 8,5 C 76 % 1013,1 hPa 0,0 l/m 18,4 km/h (3 Bft) W-SW 247 4,5 C 5,7 C
31.12.2012 10:11 8,6 C 76 % 1013,2 hPa 0,0 l/m 7,9 km/h (2 Bft) SW 225 4,6 C 7,4 C
31.12.2012 10:16 8,6 C 76 % 1013,3 hPa 0,0 l/m 12,6 km/h (3 Bft) S-SW 202 4,6 C 6,5 C
31.12.2012 10:21 8,7 C 75 % 1013,1 hPa 0,0 l/m 28,8 km/h (4 Bft) W-SW 247 4,5 C 5,0 C
31.12.2012 10:26 8,8 C 75 % 1013,3 hPa 0,0 l/m 25,6 km/h (4 Bft) SW 225 4,6 C 5,3 C
31.12.2012 10:31 8,8 C 75 % 1013,0 hPa 0,0 l/m 28,1 km/h (4 Bft) W-SW 247 4,6 C 5,2 C
31.12.2012 10:36 8,9 C 75 % 1012,8 hPa 0,0 l/m 25,2 km/h (4 Bft) W-SW 247 4,7 C 5,5 C
31.12.2012 10:41 8,9 C 74 % 1013,0 hPa 0,0 l/m 20,9 km/h (4 Bft) W-SW 247 4,5 C 5,9 C
31.12.2012 10:46 8,9 C 74 % 1013,0 hPa 0,0 l/m 15,5 km/h (3 Bft) W-SW 247 4,5 C 6,5 C
31.12.2012 10:51 9,0 C 74 % 1012,9 hPa 0,0 l/m 25,2 km/h (4 Bft) SW 225 4,6 C 5,6 C
31.12.2012 10:56 9,0 C 74 % 1012,8 hPa 0,0 l/m 21,2 km/h (4 Bft) W 270 4,6 C 6,0 C
31.12.2012 11:01 9,1 C 74 % 1012,7 hPa 0,0 l/m 17,6 km/h (3 Bft) W-SW 247 4,7 C 6,5 C
31.12.2012 11:06 9,1 C 74 % 1012,6 hPa 0,0 l/m 11,9 km/h (2 Bft) W-SW 247 4,7 C 7,2 C
31.12.2012 11:11 9,2 C 73 % 1012,4 hPa 0,0 l/m 29,2 km/h (5 Bft) W 270 4,6 C 5,6 C
31.12.2012 11:16 9,2 C 73 % 1012,4 hPa 0,0 l/m 17,6 km/h (3 Bft) W 270 4,6 C 6,6 C
31.12.2012 11:21 9,3 C 73 % 1012,5 hPa 0,0 l/m 23,0 km/h (4 Bft) W-SW 247 4,7 C 6,2 C
31.12.2012 11:26 9,3 C 73 % 1012,3 hPa 0,0 l/m 15,8 km/h (3 Bft) W-SW 247 4,7 C 7,0 C
31.12.2012 11:31 9,3 C 73 % 1012,7 hPa 0,0 l/m 26,6 km/h (4 Bft) SW 225 4,7 C 5,9 C
31.12.2012 11:36 9,2 C 73 % 1012,6 hPa 0,0 l/m 11,9 km/h (2 Bft) S-SW 202 4,6 C 7,4 C
31.12.2012 11:41 9,2 C 73 % 1012,7 hPa 0,0 l/m 22,0 km/h (4 Bft) SW 225 4,6 C 6,2 C
31.12.2012 11:46 9,1 C 73 % 1012,5 hPa 0,0 l/m 13,7 km/h (3 Bft) W-SW 247 4,5 C 7,0 C
31.12.2012 11:51 9,1 C 73 % 1012,6 hPa 0,0 l/m 22,0 km/h (4 Bft) W-SW 247 4,5 C 6,0 C
31.12.2012 11:56 9,1 C 73 % 1012,6 hPa 0,0 l/m 18,7 km/h (3 Bft) W 270 4,5 C 6,4 C
31.12.2012 12:01 9,1 C 73 % 1012,6 hPa 0,0 l/m 20,9 km/h (4 Bft) W 270 4,5 C 6,2 C
31.12.2012 12:06 9,0 C 73 % 1012,4 hPa 0,0 l/m 16,2 km/h (3 Bft) SW 225 4,4 C 6,5 C
31.12.2012 12:11 9,0 C 73 % 1012,4 hPa 0,0 l/m 19,1 km/h (3 Bft) W-SW 247 4,4 C 6,2 C
31.12.2012 12:16 9,0 C 73 % 1012,2 hPa 0,0 l/m 27,7 km/h (4 Bft) W-SW 247 4,4 C 5,4 C
31.12.2012 12:21 9,0 C 73 % 1012,1 hPa 0,0 l/m 10,4 km/h (2 Bft) S-SW 202 4,4 C 7,4 C
31.12.2012 12:26 9,0 C 73 % 1012,4 hPa 0,0 l/m 18,0 km/h (3 Bft) W-SW 247 4,4 C 6,3 C
31.12.2012 12:31 9,0 C 73 % 1012,3 hPa 0,0 l/m 19,8 km/h (3 Bft) SW 225 4,4 C 6,1 C
31.12.2012 12:36 9,0 C 73 % 1012,1 hPa 0,0 l/m 9,4 km/h (2 Bft) S-SW 202 4,4 C 7,5 C
31.12.2012 12:41 9,0 C 73 % 1012,1 hPa 0,0 l/m 23,0 km/h (4 Bft) W-SW 247 4,4 C 5,8 C
31.12.2012 12:46 9,0 C 73 % 1012,0 hPa 0,0 l/m 13,0 km/h (3 Bft) W-SW 247 4,4 C 7,0 C
31.12.2012 12:51 9,0 C 73 % 1012,0 hPa 0,0 l/m 14,8 km/h (3 Bft) W-SW 247 4,4 C 6,7 C
31.12.2012 12:56 9,0 C 73 % 1012,0 hPa 0,0 l/m 18,0 km/h (3 Bft) S-SW 202 4,4 C 6,3 C
31.12.2012 13:01 9,1 C 73 % 1012,0 hPa 0,0 l/m 22,7 km/h (4 Bft) W-SW 247 4,5 C 6,0 C
31.12.2012 13:06 9,1 C 73 % 1011,8 hPa 0,0 l/m 11,9 km/h (2 Bft) S-SW 202 4,5 C 7,2 C
31.12.2012 13:11 9,1 C 73 % 1011,8 hPa 0,0 l/m 16,6 km/h (3 Bft) SW 225 4,5 C 6,6 C
31.12.2012 13:16 9,1 C 73 % 1011,7 hPa 0,0 l/m 18,7 km/h (3 Bft) W-SW 247 4,5 C 6,4 C
31.12.2012 13:21 9,1 C 73 % 1011,7 hPa 0,0 l/m 16,6 km/h (3 Bft) S-SW 202 4,5 C 6,6 C
31.12.2012 13:26 9,1 C 73 % 1011,6 hPa 0,0 l/m 12,2 km/h (2 Bft) SW 225 4,5 C 7,2 C
31.12.2012 13:31 9,1 C 73 % 1011,6 hPa 0,0 l/m 28,1 km/h (4 Bft) W-SW 247 4,5 C 5,5 C
31.12.2012 13:36 9,1 C 73 % 1011,7 hPa 0,0 l/m 19,1 km/h (3 Bft) SW 225 4,5 C 6,3 C
31.12.2012 13:41 9,2 C 73 % 1011,6 hPa 0,0 l/m 24,1 km/h (4 Bft) W 270 4,6 C 6,0 C
31.12.2012 13:46 9,3 C 73 % 1011,7 hPa 0,0 l/m 8,3 km/h (2 Bft) SW 225 4,7 C 8,1 C
31.12.2012 13:51 9,3 C 73 % 1011,7 hPa 0,0 l/m 10,4 km/h (2 Bft) S 180 4,7 C 7,7 C
31.12.2012 13:56 9,3 C 73 % 1011,6 hPa 0,0 l/m 26,3 km/h (4 Bft) W-SW 247 4,7 C 5,9 C
31.12.2012 14:01 9,3 C 72 % 1011,4 hPa 0,0 l/m 10,1 km/h (2 Bft) W-SW 247 4,5 C 7,8 C
31.12.2012 14:06 9,4 C 72 % 1011,5 hPa 0,0 l/m 18,0 km/h (3 Bft) S-SW 202 4,6 C 6,8 C
31.12.2012 14:11 9,3 C 72 % 1011,5 hPa 0,0 l/m 14,4 km/h (3 Bft) S-SW 202 4,5 C 7,1 C
31.12.2012 14:16 9,3 C 72 % 1011,3 hPa 0,0 l/m 12,2 km/h (2 Bft) SW 225 4,5 C 7,4 C
31.12.2012 14:21 9,2 C 73 % 1011,3 hPa 0,0 l/m 11,9 km/h (2 Bft) S-SW 202 4,6 C 7,4 C
31.12.2012 14:26 9,3 C 73 % 1011,3 hPa 0,0 l/m 11,2 km/h (2 Bft) W-SW 247 4,7 C 7,6 C
31.12.2012 14:31 9,3 C 72 % 1011,1 hPa 0,0 l/m 22,7 km/h (4 Bft) SW 225 4,5 C 6,2 C
31.12.2012 14:36 9,2 C 72 % 1011,1 hPa 0,0 l/m 13,7 km/h (3 Bft) W 270 4,4 C 7,1 C
31.12.2012 14:41 9,2 C 72 % 1011,1 hPa 0,0 l/m 11,9 km/h (2 Bft) W-SW 247 4,4 C 7,4 C
31.12.2012 14:46 9,1 C 72 % 1011,0 hPa 0,0 l/m 10,4 km/h (2 Bft) W-SW 247 4,3 C 7,5 C
31.12.2012 14:51 9,0 C 73 % 1011,1 hPa 0,0 l/m 12,2 km/h (2 Bft) W-SW 247 4,4 C 7,1 C
31.12.2012 14:56 9,0 C 73 % 1010,9 hPa 0,0 l/m 16,6 km/h (3 Bft) W-SW 247 4,4 C 6,5 C
31.12.2012 15:01 8,9 C 73 % 1011,2 hPa 0,0 l/m 13,0 km/h (3 Bft) SW 225 4,3 C 6,8 C
31.12.2012 15:06 8,9 C 73 % 1011,1 hPa 0,0 l/m 16,9 km/h (3 Bft) S 180 4,3 C 6,3 C
31.12.2012 15:11 8,9 C 73 % 1011,1 hPa 0,0 l/m 11,9 km/h (2 Bft) S-SO 157 4,3 C 7,0 C
31.12.2012 15:16 8,9 C 73 % 1011,0 hPa 0,0 l/m 5,8 km/h (2 Bft) S-SO 157 4,3 C 8,3 C
31.12.2012 15:21 8,8 C 73 % 1011,1 hPa 0,0 l/m 4,0 km/h (1 Bft) SW 225 4,2 C 8,8 C
31.12.2012 15:26 8,6 C 73 % 1011,1 hPa 0,0 l/m 4,7 km/h (1 Bft) S-SW 202 4,0 C 8,3 C
31.12.2012 15:31 8,5 C 74 % 1011,1 hPa 0,0 l/m 5,4 km/h (1 Bft) SW 225 4,1 C 7,9 C
31.12.2012 15:36 8,4 C 74 % 1011,1 hPa 0,0 l/m 9,0 km/h (2 Bft) SW 225 4,0 C 6,9 C
31.12.2012 15:41 8,3 C 74 % 1011,1 hPa 0,0 l/m 15,5 km/h (3 Bft) S-SW 202 3,9 C 5,8 C
31.12.2012 15:46 8,2 C 75 % 1011,2 hPa 0,0 l/m 14,8 km/h (3 Bft) W-SW 247 4,0 C 5,7 C
31.12.2012 15:51 8,2 C 75 % 1010,9 hPa 0,0 l/m 8,3 km/h (2 Bft) S-SO 157 4,0 C 6,8 C
31.12.2012 15:56 8,1 C 75 % 1010,9 hPa 0,0 l/m 8,6 km/h (2 Bft) S-SW 202 3,9 C 6,6 C
31.12.2012 16:01 8,1 C 76 % 1010,9 hPa 0,0 l/m 3,2 km/h (1 Bft) S-SW 202 4,1 C 8,1 C
31.12.2012 16:06 7,9 C 76 % 1010,9 hPa 0,0 l/m 4,0 km/h (1 Bft) SW 225 3,9 C 7,9 C
31.12.2012 16:11 7,9 C 76 % 1010,9 hPa 0,0 l/m 5,0 km/h (1 Bft) S-SW 202 3,9 C 7,4 C
31.12.2012 16:16 7,8 C 76 % 1010,8 hPa 0,0 l/m 3,2 km/h (1 Bft) SO 135 3,8 C 7,8 C
31.12.2012 16:21 7,6 C 77 % 1010,7 hPa 0,0 l/m 10,8 km/h (2 Bft) SW 225 3,8 C 5,6 C
31.12.2012 16:26 7,6 C 77 % 1010,7 hPa 0,0 l/m 4,0 km/h (1 Bft) S-SO 157 3,8 C 7,6 C
31.12.2012 16:31 7,5 C 77 % 1010,8 hPa 0,0 l/m 2,9 km/h (1 Bft) S-SW 202 3,7 C 7,5 C
31.12.2012 16:36 7,4 C 77 % 1010,7 hPa 0,0 l/m 4,3 km/h (1 Bft) S-SW 202 3,6 C 7,4 C
31.12.2012 16:41 7,4 C 78 % 1010,6 hPa 0,0 l/m 4,3 km/h (1 Bft) S 180 3,8 C 7,4 C
31.12.2012 16:46 7,3 C 78 % 1010,6 hPa 0,0 l/m 4,7 km/h (1 Bft) S 180 3,7 C 6,8 C
31.12.2012 16:51 7,3 C 78 % 1010,6 hPa 0,0 l/m 6,8 km/h (2 Bft) S-SO 157 3,7 C 6,1 C
31.12.2012 16:56 7,3 C 78 % 1010,7 hPa 0,0 l/m 14,8 km/h (3 Bft) SW 225 3,7 C 4,6 C
31.12.2012 17:01 7,3 C 79 % 1010,7 hPa 0,0 l/m 8,3 km/h (2 Bft) S-SW 202 3,9 C 5,8 C
31.12.2012 17:06 7,4 C 79 % 1010,6 hPa 0,0 l/m 5,0 km/h (1 Bft) S-SW 202 4,0 C 6,8 C
31.12.2012 17:11 7,4 C 78 % 1010,6 hPa 0,0 l/m 10,4 km/h (2 Bft) S-SO 157 3,8 C 5,4 C
31.12.2012 17:16 7,4 C 78 % 1010,5 hPa 0,0 l/m 2,9 km/h (1 Bft) SO 135 3,8 C 7,4 C
31.12.2012 17:21 7,3 C 79 % 1010,4 hPa 0,0 l/m 5,0 km/h (1 Bft) SW 225 3,9 C 6,7 C
31.12.2012 17:26 7,4 C 79 % 1010,3 hPa 0,0 l/m 11,9 km/h (2 Bft) S 180 4,0 C 5,2 C
31.12.2012 17:31 7,4 C 79 % 1010,3 hPa 0,0 l/m 6,5 km/h (2 Bft) W-SW 247 4,0 C 6,3 C
31.12.2012 17:36 7,5 C 79 % 1010,1 hPa 0,0 l/m 9,7 km/h (2 Bft) W-SW 247 4,1 C 5,7 C
31.12.2012 17:41 7,6 C 78 % 1010,0 hPa 0,0 l/m 7,9 km/h (2 Bft) S-SW 202 4,0 C 6,2 C
31.12.2012 17:46 7,8 C 78 % 1009,9 hPa 0,0 l/m 14,4 km/h (3 Bft) W 270 4,2 C 5,3 C
31.12.2012 17:51 7,8 C 78 % 1010,0 hPa 0,0 l/m 18,4 km/h (3 Bft) S-SW 202 4,2 C 4,8 C
31.12.2012 17:56 7,9 C 77 % 1009,8 hPa 0,0 l/m 21,2 km/h (4 Bft) W-SW 247 4,1 C 4,6 C
31.12.2012 18:01 7,9 C 77 % 1009,6 hPa 0,0 l/m 5,8 km/h (2 Bft) W-SW 247 4,1 C 7,1 C
31.12.2012 18:06 7,9 C 77 % 1009,6 hPa 0,0 l/m 7,9 km/h (2 Bft) S-SW 202 4,1 C 6,6 C
31.12.2012 18:11 7,9 C 77 % 1009,6 hPa 0,0 l/m 13,7 km/h (3 Bft) S 180 4,1 C 5,5 C
31.12.2012 18:16 7,8 C 77 % 1009,5 hPa 0,0 l/m 16,6 km/h (3 Bft) SW 225 4,0 C 5,0 C
31.12.2012 18:21 7,6 C 77 % 1009,5 hPa 0,0 l/m 10,8 km/h (2 Bft) S-SW 202 3,8 C 5,6 C
31.12.2012 18:26 7,5 C 78 % 1009,4 hPa 0,0 l/m 11,5 km/h (2 Bft) SW 225 3,9 C 5,4 C
31.12.2012 18:31 7,4 C 78 % 1009,2 hPa 0,0 l/m 9,4 km/h (2 Bft) SW 225 3,8 C 5,6 C
31.12.2012 18:36 7,3 C 78 % 1009,4 hPa 0,0 l/m 14,8 km/h (3 Bft) S 180 3,7 C 4,6 C
31.12.2012 18:41 7,3 C 78 % 1009,4 hPa 0,0 l/m 7,2 km/h (2 Bft) SW 225 3,7 C 6,0 C
31.12.2012 18:46 7,2 C 78 % 1009,3 hPa 0,0 l/m 9,7 km/h (2 Bft) S-SW 202 3,6 C 5,3 C
31.12.2012 18:51 7,2 C 79 % 1009,3 hPa 0,0 l/m 16,9 km/h (3 Bft) S-SW 202 3,8 C 4,2 C
31.12.2012 18:56 7,1 C 79 % 1009,4 hPa 0,0 l/m 15,5 km/h (3 Bft) S 180 3,7 C 4,3 C
31.12.2012 19:01 7,0 C 79 % 1009,2 hPa 0,0 l/m 12,6 km/h (3 Bft) S-SW 202 3,6 C 4,6 C
31.12.2012 19:06 6,9 C 80 % 1009,0 hPa 0,0 l/m 10,4 km/h (2 Bft) S 180 3,7 C 4,8 C
31.12.2012 19:11 6,9 C 80 % 1009,1 hPa 0,0 l/m 7,2 km/h (2 Bft) S-SW 202 3,7 C 5,6 C
31.12.2012 19:16 6,6 C 80 % 1008,9 hPa 0,0 l/m 6,5 km/h (2 Bft) S-SO 157 3,4 C 5,4 C
31.12.2012 19:21 6,5 C 80 % 1008,9 hPa 0,0 l/m 5,4 km/h (1 Bft) S-SO 157 3,3 C 5,6 C
31.12.2012 19:26 6,4 C 80 % 1008,7 hPa 0,0 l/m 4,7 km/h (1 Bft) SW 225 3,2 C 5,8 C
31.12.2012 19:31 6,3 C 81 % 1008,6 hPa 0,0 l/m 11,5 km/h (2 Bft) S-SW 202 3,3 C 3,9 C
31.12.2012 19:36 6,3 C 81 % 1008,5 hPa 0,0 l/m 6,1 km/h (2 Bft) S 180 3,3 C 5,2 C
31.12.2012 19:41 6,3 C 81 % 1008,4 hPa 0,0 l/m 15,5 km/h (3 Bft) S 180 3,3 C 3,3 C
31.12.2012 19:46 6,2 C 81 % 1008,4 hPa 0,0 l/m 15,8 km/h (3 Bft) S-SO 157 3,2 C 3,1 C
31.12.2012 19:51 6,3 C 81 % 1008,2 hPa 0,0 l/m 9,4 km/h (2 Bft) S 180 3,3 C 4,3 C
31.12.2012 19:56 6,3 C 81 % 1008,0 hPa 0,0 l/m 7,2 km/h (2 Bft) S 180 3,3 C 4,9 C
31.12.2012 20:01 6,3 C 81 % 1008,1 hPa 0,0 l/m 6,1 km/h (2 Bft) W-SW 247 3,3 C 5,2 C
31.12.2012 20:06 6,3 C 81 % 1008,0 hPa 0,0 l/m 18,0 km/h (3 Bft) S 180 3,3 C 2,9 C
31.12.2012 20:11 6,2 C 81 % 1008,0 hPa 0,0 l/m 13,0 km/h (3 Bft) SW 225 3,2 C 3,5 C
31.12.2012 20:16 6,2 C 81 % 1008,0 hPa 0,0 l/m 14,4 km/h (3 Bft) S-SW 202 3,2 C 3,3 C
31.12.2012 20:21 6,1 C 81 % 1007,8 hPa 0,0 l/m 20,2 km/h (4 Bft) S-SO 157 3,1 C 2,4 C
31.12.2012 20:26 6,1 C 81 % 1007,8 hPa 0,0 l/m 9,4 km/h (2 Bft) S-SW 202 3,1 C 4,1 C
31.12.2012 20:31 6,2 C 81 % 1007,8 hPa 0,0 l/m 18,4 km/h (3 Bft) S-SW 202 3,2 C 2,8 C
31.12.2012 20:36 6,3 C 81 % 1007,8 hPa 0,0 l/m 11,2 km/h (2 Bft) S-SW 202 3,3 C 4,0 C
31.12.2012 20:41 6,3 C 81 % 1007,7 hPa 0,0 l/m 20,2 km/h (4 Bft) SW 225 3,3 C 2,7 C
31.12.2012 20:46 6,4 C 81 % 1007,6 hPa 0,0 l/m 9,0 km/h (2 Bft) S-SW 202 3,4 C 4,5 C
31.12.2012 20:51 6,5 C 80 % 1007,5 hPa 0,0 l/m 9,0 km/h (2 Bft) SO 135 3,3 C 4,7 C
31.12.2012 20:56 6,6 C 80 % 1007,4 hPa 0,0 l/m 15,1 km/h (3 Bft) S-SO 157 3,4 C 3,7 C
31.12.2012 21:01 6,7 C 80 % 1007,4 hPa 0,0 l/m 11,5 km/h (2 Bft) S-SW 202 3,5 C 4,4 C
31.12.2012 21:06 6,7 C 80 % 1007,2 hPa 0,0 l/m 9,4 km/h (2 Bft) S-SW 202 3,5 C 4,8 C
31.12.2012 21:11 6,7 C 80 % 1007,2 hPa 0,0 l/m 16,6 km/h (3 Bft) W-SW 247 3,5 C 3,6 C
31.12.2012 21:16 6,7 C 79 % 1007,3 hPa 0,0 l/m 17,3 km/h (3 Bft) S 180 3,3 C 3,5 C
31.12.2012 21:21 6,7 C 79 % 1007,4 hPa 0,0 l/m 6,1 km/h (2 Bft) W-SW 247 3,3 C 5,6 C
31.12.2012 21:26 6,8 C 79 % 1007,4 hPa 0,0 l/m 11,9 km/h (2 Bft) W-SW 247 3,4 C 4,5 C
31.12.2012 21:31 6,8 C 79 % 1007,4 hPa 0,0 l/m 16,9 km/h (3 Bft) S 180 3,4 C 3,7 C
31.12.2012 21:36 6,8 C 79 % 1007,5 hPa 0,0 l/m 6,5 km/h (2 Bft) S-SW 202 3,4 C 5,6 C
31.12.2012 21:41 6,8 C 79 % 1007,4 hPa 0,0 l/m 9,4 km/h (2 Bft) W-SW 247 3,4 C 4,9 C
31.12.2012 21:46 6,7 C 79 % 1007,4 hPa 0,0 l/m 8,6 km/h (2 Bft) S 180 3,3 C 5,0 C
31.12.2012 21:51 6,8 C 79 % 1007,2 hPa 0,0 l/m 6,1 km/h (2 Bft) SO 135 3,4 C 5,8 C
31.12.2012 21:56 6,8 C 79 % 1007,2 hPa 0,0 l/m 9,0 km/h (2 Bft) S-SO 157 3,4 C 5,0 C
31.12.2012 22:01 6,7 C 79 % 1007,1 hPa 0,0 l/m 19,1 km/h (3 Bft) SW 225 3,3 C 3,3 C
31.12.2012 22:06 6,7 C 80 % 1007,0 hPa 0,0 l/m 13,3 km/h (3 Bft) S-SW 202 3,5 C 4,1 C
31.12.2012 22:11 6,6 C 80 % 1006,9 hPa 0,0 l/m 5,4 km/h (1 Bft) S 180 3,4 C 5,8 C
31.12.2012 22:16 6,6 C 80 % 1007,0 hPa 0,0 l/m 6,1 km/h (2 Bft) W-SW 247 3,4 C 5,5 C
31.12.2012 22:21 6,6 C 80 % 1006,6 hPa 0,0 l/m 6,8 km/h (2 Bft) SW 225 3,4 C 5,3 C
31.12.2012 22:26 6,5 C 80 % 1006,6 hPa 0,0 l/m 8,3 km/h (2 Bft) S-SW 202 3,3 C 4,8 C
31.12.2012 22:31 6,5 C 80 % 1006,5 hPa 0,0 l/m 7,2 km/h (2 Bft) S 180 3,3 C 5,1 C
31.12.2012 22:36 6,5 C 80 % 1006,6 hPa 0,0 l/m 14,8 km/h (3 Bft) S-SW 202 3,3 C 3,6 C
31.12.2012 22:41 6,5 C 80 % 1006,6 hPa 0,0 l/m 11,2 km/h (2 Bft) W-SW 247 3,3 C 4,2 C
31.12.2012 22:46 6,5 C 80 % 1006,5 hPa 0,0 l/m 10,8 km/h (2 Bft) S 180 3,3 C 4,3 C
31.12.2012 22:51 6,5 C 80 % 1006,6 hPa 0,0 l/m 17,6 km/h (3 Bft) S-SW 202 3,3 C 3,2 C
31.12.2012 22:56 6,5 C 80 % 1006,4 hPa 0,0 l/m 10,8 km/h (2 Bft) SW 225 3,3 C 4,3 C
31.12.2012 23:01 6,6 C 80 % 1006,5 hPa 0,0 l/m 7,2 km/h (2 Bft) S-SW 202 3,4 C 5,2 C
31.12.2012 23:06 6,6 C 80 % 1006,3 hPa 0,0 l/m 7,2 km/h (2 Bft) S-SW 202 3,4 C 5,2 C
31.12.2012 23:11 6,6 C 80 % 1006,4 hPa 0,0 l/m 19,1 km/h (3 Bft) S 180 3,4 C 3,2 C
31.12.2012 23:16 6,6 C 80 % 1006,3 hPa 0,0 l/m 6,1 km/h (2 Bft) S 180 3,4 C 5,5 C
31.12.2012 23:21 6,6 C 80 % 1006,2 hPa 0,0 l/m 11,2 km/h (2 Bft) S-SW 202 3,4 C 4,3 C
31.12.2012 23:26 6,5 C 80 % 1006,3 hPa 0,0 l/m 14,8 km/h (3 Bft) SW 225 3,3 C 3,6 C
31.12.2012 23:31 6,5 C 80 % 1006,0 hPa 0,0 l/m 23,8 km/h (4 Bft) S-SW 202 3,3 C 2,6 C
31.12.2012 23:36 6,4 C 80 % 1006,0 hPa 0,0 l/m 6,1 km/h (2 Bft) S 180 3,2 C 5,3 C
31.12.2012 23:41 6,4 C 80 % 1006,0 hPa 0,0 l/m 12,2 km/h (2 Bft) W-SW 247 3,2 C 3,9 C
31.12.2012 23:46 6,3 C 81 % 1006,1 hPa 0,0 l/m 10,8 km/h (2 Bft) S 180 3,3 C 4,1 C
31.12.2012 23:51 6,2 C 81 % 1005,9 hPa 0,0 l/m 11,2 km/h (2 Bft) SW 225 3,2 C 3,9 C
31.12.2012 23:56 6,2 C 81 % 1006,0 hPa 0,0 l/m 13,7 km/h (3 Bft) S 180 3,2 C 3,4 C
_ Min-Zeit 00:21 14:01 23:51 - 16:31 - - 00:21 00:56
Minimum _ 5,4 C 72 % 1005,9 hPa - 2,9 km/h (1 Bft) - - 2,9 C 1,5 C
_ Max-Zeit 14:06 00:51 02:46 00:01 11:11 - - 06:41 15:21
Maximum _ 9,4 C 85 % 1014,8 hPa 0,0 l/m 29,2 km/h
W (5 Bft)
- - 4,7 C 8,8 C
Durchschnitt _ 7,4 C 79 % 1011,5 hPa #0,0 l/m 14,1 km/h (3 Bft) W-SW - 4,0 C 5,1 C
(c) by David Heller